sensor_id;sensor_type;location;lat;lon;timestamp;pressure;altitude;pressure_sealevel;temperature;humidity
22389;BME280;11362;48.102;11.620;2023-05-23T00:01:45;94967.47;;;23.70;47.58
22389;BME280;11362;48.102;11.620;2023-05-23T00:04:10;94965.13;;;23.68;47.39
22389;BME280;11362;48.102;11.620;2023-05-23T00:06:35;94971.03;;;23.70;47.53
22389;BME280;11362;48.102;11.620;2023-05-23T00:09:01;94970.25;;;23.70;47.57
22389;BME280;11362;48.102;11.620;2023-05-23T00:11:27;94966.66;;;23.69;47.55
22389;BME280;11362;48.102;11.620;2023-05-23T00:13:52;94973.81;;;23.70;47.44
22389;BME280;11362;48.102;11.620;2023-05-23T00:16:18;94972.22;;;23.69;47.39
22389;BME280;11362;48.102;11.620;2023-05-23T00:18:44;94983.31;;;23.69;47.29
22389;BME280;11362;48.102;11.620;2023-05-23T00:21:09;94980.97;;;23.68;47.46
22389;BME280;11362;48.102;11.620;2023-05-23T00:23:34;94977.78;;;23.69;47.48
22389;BME280;11362;48.102;11.620;2023-05-23T00:25:59;94977.41;;;23.67;47.40
22389;BME280;11362;48.102;11.620;2023-05-23T00:28:25;94983.31;;;23.69;47.47
22389;BME280;11362;48.102;11.620;2023-05-23T00:30:50;94975.44;;;23.68;47.53
22389;BME280;11362;48.102;11.620;2023-05-23T00:33:16;94981.75;;;23.68;47.43
22389;BME280;11362;48.102;11.620;2023-05-23T00:35:42;94982.53;;;23.69;47.45
22389;BME280;11362;48.102;11.620;2023-05-23T00:38:07;94974.66;;;23.67;47.23
22389;BME280;11362;48.102;11.620;2023-05-23T00:40:33;94980.97;;;23.68;47.38
22389;BME280;11362;48.102;11.620;2023-05-23T00:42:59;94980.19;;;23.67;47.35
22389;BME280;11362;48.102;11.620;2023-05-23T00:45:25;94978.63;;;23.66;47.38
22389;BME280;11362;48.102;11.620;2023-05-23T00:47:51;94986.53;;;23.68;47.43
22389;BME280;11362;48.102;11.620;2023-05-23T00:50:17;94980.19;;;23.67;47.42
22389;BME280;11362;48.102;11.620;2023-05-23T00:52:44;94985.72;;;23.67;47.39
22389;BME280;11362;48.102;11.620;2023-05-23T00:55:10;94975.84;;;23.66;47.41
22389;BME280;11362;48.102;11.620;2023-05-23T00:57:37;94977.06;;;23.65;47.35
22389;BME280;11362;48.102;11.620;2023-05-23T01:00:02;94967.53;;;23.66;47.42
22389;BME280;11362;48.102;11.620;2023-05-23T01:02:28;94979.03;;;23.65;47.35
22389;BME280;11362;48.102;11.620;2023-05-23T01:04:56;94982.63;;;23.65;47.36
22389;BME280;11362;48.102;11.620;2023-05-23T01:07:21;94980.59;;;23.66;47.40
22389;BME280;11362;48.102;11.620;2023-05-23T01:09:47;94983.38;;;23.66;47.05
22389;BME280;11362;48.102;11.620;2023-05-23T01:12:20;94974.72;;;23.64;47.22
22389;BME280;11362;48.102;11.620;2023-05-23T01:15:03;94979.84;;;23.65;47.31
22389;BME280;11362;48.102;11.620;2023-05-23T01:20:12;94987.38;;;23.65;47.29
22389;BME280;11362;48.102;11.620;2023-05-23T01:25:27;94984.59;;;23.65;47.23
22389;BME280;11362;48.102;11.620;2023-05-23T01:28:05;94987.38;;;23.65;47.30
22389;BME280;11362;48.102;11.620;2023-05-23T01:30:34;94993.72;;;23.65;47.17
22389;BME280;11362;48.102;11.620;2023-05-23T01:33:03;94989.78;;;23.63;47.23
22389;BME280;11362;48.102;11.620;2023-05-23T01:35:30;94993.34;;;23.63;47.10
22389;BME280;11362;48.102;11.620;2023-05-23T01:37:55;94990.59;;;23.63;47.22
22389;BME280;11362;48.102;11.620;2023-05-23T01:40:22;94983.81;;;23.64;47.27
22389;BME280;11362;48.102;11.620;2023-05-23T01:42:48;94992.50;;;23.66;47.13
22389;BME280;11362;48.102;11.620;2023-05-23T01:45:14;94992.13;;;23.64;47.27
22389;BME280;11362;48.102;11.620;2023-05-23T01:47:40;94991.75;;;23.62;47.28
22389;BME280;11362;48.102;11.620;2023-05-23T01:50:07;94998.91;;;23.63;47.25
22389;BME280;11362;48.102;11.620;2023-05-23T01:52:34;94991.75;;;23.62;47.21
22389;BME280;11362;48.102;11.620;2023-05-23T01:54:59;94994.53;;;23.62;47.21
22389;BME280;11362;48.102;11.620;2023-05-23T01:57:26;95007.22;;;23.63;47.19
22389;BME280;11362;48.102;11.620;2023-05-23T01:59:53;95002.84;;;23.62;47.28
22389;BME280;11362;48.102;11.620;2023-05-23T02:02:19;95009.59;;;23.61;47.21
22389;BME280;11362;48.102;11.620;2023-05-23T02:04:44;95002.84;;;23.62;47.14
22389;BME280;11362;48.102;11.620;2023-05-23T02:07:09;95007.22;;;23.63;47.16
22389;BME280;11362;48.102;11.620;2023-05-23T02:09:35;95005.28;;;23.60;47.14
22389;BME280;11362;48.102;11.620;2023-05-23T02:12:00;95015.16;;;23.61;47.21
22389;BME280;11362;48.102;11.620;2023-05-23T02:14:25;95015.16;;;23.61;47.09
22389;BME280;11362;48.102;11.620;2023-05-23T02:16:50;95017.94;;;23.61;47.20
22389;BME280;11362;48.102;11.620;2023-05-23T02:19:16;95015.94;;;23.62;47.20
22389;BME280;11362;48.102;11.620;2023-05-23T02:21:41;95019.13;;;23.60;47.24
22389;BME280;11362;48.102;11.620;2023-05-23T02:24:06;95015.59;;;23.60;47.31
22389;BME280;11362;48.102;11.620;2023-05-23T02:26:32;95012.38;;;23.61;47.22
22389;BME280;11362;48.102;11.620;2023-05-23T02:28:57;95020.69;;;23.61;47.09
22389;BME280;11362;48.102;11.620;2023-05-23T02:31:22;95021.50;;;23.62;47.09
22389;BME280;11362;48.102;11.620;2023-05-23T02:33:47;95019.50;;;23.62;47.14
22389;BME280;11362;48.102;11.620;2023-05-23T02:36:13;95030.56;;;23.62;47.08
22389;BME280;11362;48.102;11.620;2023-05-23T02:38:38;95024.69;;;23.60;47.30
22389;BME280;11362;48.102;11.620;2023-05-23T02:41:03;95027.81;;;23.62;47.03
22389;BME280;11362;48.102;11.620;2023-05-23T02:43:29;95031.03;;;23.61;47.17
22389;BME280;11362;48.102;11.620;2023-05-23T02:45:54;95031.03;;;23.61;47.03
22389;BME280;11362;48.102;11.620;2023-05-23T02:48:19;95031.78;;;23.61;46.98
22389;BME280;11362;48.102;11.620;2023-05-23T02:50:44;95030.22;;;23.60;46.77
22389;BME280;11362;48.102;11.620;2023-05-23T02:53:10;95044.88;;;23.61;46.95
22389;BME280;11362;48.102;11.620;2023-05-23T02:55:35;95037.34;;;23.61;47.04
22389;BME280;11362;48.102;11.620;2023-05-23T02:58:00;95034.22;;;23.59;47.12
22389;BME280;11362;48.102;11.620;2023-05-23T03:00:26;95035.78;;;23.60;47.08
22389;BME280;11362;48.102;11.620;2023-05-23T03:02:51;95030.22;;;23.60;46.98
22389;BME280;11362;48.102;11.620;2023-05-23T03:05:17;95034.22;;;23.59;46.97
22389;BME280;11362;48.102;11.620;2023-05-23T03:07:42;95033.00;;;23.60;47.00
22389;BME280;11362;48.102;11.620;2023-05-23T03:10:08;95027.09;;;23.58;47.05
22389;BME280;11362;48.102;11.620;2023-05-23T03:12:33;95028.25;;;23.61;47.11
22389;BME280;11362;48.102;11.620;2023-05-23T03:14:59;95035.78;;;23.60;47.04
22389;BME280;11362;48.102;11.620;2023-05-23T03:17:24;95035.00;;;23.60;47.06
22389;BME280;11362;48.102;11.620;2023-05-23T03:19:49;95039.75;;;23.59;47.13
22389;BME280;11362;48.102;11.620;2023-05-23T03:22:15;95036.19;;;23.59;47.08
22389;BME280;11362;48.102;11.620;2023-05-23T03:24:40;95033.00;;;23.60;47.10
22389;BME280;11362;48.102;11.620;2023-05-23T03:27:05;95033.00;;;23.60;46.99
22389;BME280;11362;48.102;11.620;2023-05-23T03:29:30;95035.78;;;23.60;46.96
22389;BME280;11362;48.102;11.620;2023-05-23T03:31:56;95031.03;;;23.61;47.00
22389;BME280;11362;48.102;11.620;2023-05-23T03:34:21;95024.69;;;23.60;46.95
22389;BME280;11362;48.102;11.620;2023-05-23T03:36:46;95031.78;;;23.61;47.17
22389;BME280;11362;48.102;11.620;2023-05-23T03:39:12;95031.44;;;23.59;47.03
22389;BME280;11362;48.102;11.620;2023-05-23T03:41:37;95035.78;;;23.60;46.92
22389;BME280;11362;48.102;11.620;2023-05-23T03:44:02;95041.31;;;23.60;47.02
22389;BME280;11362;48.102;11.620;2023-05-23T03:46:28;95044.88;;;23.61;46.59
22389;BME280;11362;48.102;11.620;2023-05-23T03:48:53;95044.09;;;23.60;47.01
22389;BME280;11362;48.102;11.620;2023-05-23T03:51:18;95037.78;;;23.60;46.88
22389;BME280;11362;48.102;11.620;2023-05-23T03:53:43;95029.06;;;23.58;46.95
22389;BME280;11362;48.102;11.620;2023-05-23T03:56:09;95038.19;;;23.58;46.88
22389;BME280;11362;48.102;11.620;2023-05-23T03:58:34;95038.19;;;23.58;46.98
22389;BME280;11362;48.102;11.620;2023-05-23T04:00:59;95045.31;;;23.59;46.92
22389;BME280;11362;48.102;11.620;2023-05-23T04:03:24;95046.09;;;23.60;46.99
22389;BME280;11362;48.102;11.620;2023-05-23T04:05:50;95041.31;;;23.60;46.96
22389;BME280;11362;48.102;11.620;2023-05-23T04:08:15;95042.13;;;23.61;46.98
22389;BME280;11362;48.102;11.620;2023-05-23T04:10:40;95056.41;;;23.59;46.88
22389;BME280;11362;48.102;11.620;2023-05-23T04:13:05;95057.19;;;23.60;47.04
22389;BME280;11362;48.102;11.620;2023-05-23T04:15:31;95052.41;;;23.60;47.04
22389;BME280;11362;48.102;11.620;2023-05-23T04:17:56;95055.19;;;23.60;46.88
22389;BME280;11362;48.102;11.620;2023-05-23T04:20:22;95057.94;;;23.60;47.01
22389;BME280;11362;48.102;11.620;2023-05-23T04:22:47;95061.13;;;23.59;46.96
22389;BME280;11362;48.102;11.620;2023-05-23T04:25:12;95058.75;;;23.61;46.78
22389;BME280;11362;48.102;11.620;2023-05-23T04:27:38;95061.94;;;23.59;46.94
22389;BME280;11362;48.102;11.620;2023-05-23T04:30:03;95068.28;;;23.60;46.72
22389;BME280;11362;48.102;11.620;2023-05-23T04:32:29;95080.94;;;23.61;46.79
22389;BME280;11362;48.102;11.620;2023-05-23T04:34:54;95077.00;;;23.58;47.01
22389;BME280;11362;48.102;11.620;2023-05-23T04:37:19;95086.47;;;23.61;46.80
22389;BME280;11362;48.102;11.620;2023-05-23T04:39:44;95084.91;;;23.60;46.87
22389;BME280;11362;48.102;11.620;2023-05-23T04:42:10;95090.47;;;23.60;47.05
22389;BME280;11362;48.102;11.620;2023-05-23T04:44:35;95086.88;;;23.59;46.82
22389;BME280;11362;48.102;11.620;2023-05-23T04:47:00;95085.69;;;23.60;46.99
22389;BME280;11362;48.102;11.620;2023-05-23T04:49:25;95089.66;;;23.59;46.75
22389;BME280;11362;48.102;11.620;2023-05-23T04:51:51;95095.22;;;23.59;46.75
22389;BME280;11362;48.102;11.620;2023-05-23T04:54:16;95088.09;;;23.58;46.79
22389;BME280;11362;48.102;11.620;2023-05-23T04:56:41;95082.56;;;23.58;46.99
22389;BME280;11362;48.102;11.620;2023-05-23T04:59:07;95081.00;;;23.57;47.02
22389;BME280;11362;48.102;11.620;2023-05-23T05:01:32;95078.22;;;23.57;46.95
22389;BME280;11362;48.102;11.620;2023-05-23T05:03:57;95080.19;;;23.57;46.80
22389;BME280;11362;48.102;11.620;2023-05-23T05:06:22;95080.19;;;23.57;46.72
22389;BME280;11362;48.102;11.620;2023-05-23T05:08:48;95087.31;;;23.58;46.92
22389;BME280;11362;48.102;11.620;2023-05-23T05:11:13;95075.44;;;23.57;47.00
22389;BME280;11362;48.102;11.620;2023-05-23T05:13:38;95080.13;;;23.60;47.46
22389;BME280;11362;48.102;11.620;2023-05-23T05:16:04;95095.16;;;23.63;47.65
22389;BME280;11362;48.102;11.620;2023-05-23T05:18:29;95107.03;;;23.63;48.01
22389;BME280;11362;48.102;11.620;2023-05-23T05:20:55;95095.09;;;23.66;47.85
22389;BME280;11362;48.102;11.620;2023-05-23T05:23:24;95099.84;;;23.66;47.94
22389;BME280;11362;48.102;11.620;2023-05-23T05:25:49;95091.53;;;23.66;48.87
22389;BME280;11362;48.102;11.620;2023-05-23T05:28:15;95093.06;;;23.70;48.48
22389;BME280;11362;48.102;11.620;2023-05-23T05:30:40;95090.28;;;23.70;48.50
22389;BME280;11362;48.102;11.620;2023-05-23T05:33:05;95096.53;;;23.74;48.69
22389;BME280;11362;48.102;11.620;2023-05-23T05:35:30;95089.84;;;23.72;48.47
22389;BME280;11362;48.102;11.620;2023-05-23T05:37:56;95083.81;;;23.77;48.73
22389;BME280;11362;48.102;11.620;2023-05-23T05:40:21;95091.78;;;23.75;48.42
22389;BME280;11362;48.102;11.620;2023-05-23T05:42:47;95087.81;;;23.76;48.24
22389;BME280;11362;48.102;11.620;2023-05-23T05:45:12;95083.03;;;23.76;48.47
22389;BME280;11362;48.102;11.620;2023-05-23T05:47:37;95093.28;;;23.79;48.51
22389;BME280;11362;48.102;11.620;2023-05-23T05:50:06;95089.31;;;23.80;48.65
22389;BME280;11362;48.102;11.620;2023-05-23T05:52:32;95083.41;;;23.78;48.58
22389;BME280;11362;48.102;11.620;2023-05-23T05:54:57;95094.06;;;23.80;48.61
22389;BME280;11362;48.102;11.620;2023-05-23T05:57:22;95101.97;;;23.81;48.81
22389;BME280;11362;48.102;11.620;2023-05-23T05:59:48;95094.06;;;23.80;48.69
22389;BME280;11362;48.102;11.620;2023-05-23T06:02:13;95104.31;;;23.83;48.59
22389;BME280;11362;48.102;11.620;2023-05-23T06:04:38;95105.94;;;23.80;48.49
22389;BME280;11362;48.102;11.620;2023-05-23T06:07:04;95112.72;;;23.79;48.31
22389;BME280;11362;48.102;11.620;2023-05-23T06:09:29;95113.91;;;23.78;48.29
22389;BME280;11362;48.102;11.620;2023-05-23T06:11:54;95111.91;;;23.79;48.19
22389;BME280;11362;48.102;11.620;2023-05-23T06:14:19;95108.38;;;23.78;48.04
22389;BME280;11362;48.102;11.620;2023-05-23T06:16:45;95111.16;;;23.78;48.04
22389;BME280;11362;48.102;11.620;2023-05-23T06:19:10;95109.56;;;23.77;47.67
22389;BME280;11362;48.102;11.620;2023-05-23T06:21:35;95109.13;;;23.79;48.08
22389;BME280;11362;48.102;11.620;2023-05-23T06:24:00;95103.59;;;23.79;48.07
22389;BME280;11362;48.102;11.620;2023-05-23T06:26:26;95115.47;;;23.79;47.89
22389;BME280;11362;48.102;11.620;2023-05-23T06:28:51;95109.94;;;23.79;47.98
22389;BME280;11362;48.102;11.620;2023-05-23T06:31:16;95109.13;;;23.79;47.79
22389;BME280;11362;48.102;11.620;2023-05-23T06:33:41;95111.56;;;23.77;47.94
22389;BME280;11362;48.102;11.620;2023-05-23T06:36:07;95117.91;;;23.77;47.93
22389;BME280;11362;48.102;11.620;2023-05-23T06:38:32;95119.47;;;23.78;48.05
22389;BME280;11362;48.102;11.620;2023-05-23T06:40:58;95112.34;;;23.77;47.96
22389;BME280;11362;48.102;11.620;2023-05-23T06:43:24;95114.69;;;23.79;47.76
22389;BME280;11362;48.102;11.620;2023-05-23T06:45:50;95115.13;;;23.77;47.87
22389;BME280;11362;48.102;11.620;2023-05-23T06:48:15;95111.16;;;23.78;47.65
22389;BME280;11362;48.102;11.620;2023-05-23T06:50:41;95122.59;;;23.80;47.90
22389;BME280;11362;48.102;11.620;2023-05-23T06:53:06;95109.56;;;23.77;47.73
22389;BME280;11362;48.102;11.620;2023-05-23T06:55:31;95115.47;;;23.79;47.67
22389;BME280;11362;48.102;11.620;2023-05-23T06:57:57;95115.88;;;23.78;47.72
22389;BME280;11362;48.102;11.620;2023-05-23T07:00:22;95118.25;;;23.79;47.76
22389;BME280;11362;48.102;11.620;2023-05-23T07:02:47;95122.66;;;23.77;47.54
22389;BME280;11362;48.102;11.620;2023-05-23T07:05:13;95138.44;;;23.80;47.76
22389;BME280;11362;48.102;11.620;2023-05-23T07:07:38;95123.44;;;23.77;47.56
22389;BME280;11362;48.102;11.620;2023-05-23T07:10:04;95125.00;;;23.78;47.53
22389;BME280;11362;48.102;11.620;2023-05-23T07:12:29;95123.44;;;23.77;47.54
22389;BME280;11362;48.102;11.620;2023-05-23T07:14:55;95127.00;;;23.78;47.60
22389;BME280;11362;48.102;11.620;2023-05-23T07:17:20;95121.84;;;23.76;47.64
22389;BME280;11362;48.102;11.620;2023-05-23T07:19:45;95130.97;;;23.77;47.72
22389;BME280;11362;48.102;11.620;2023-05-23T07:22:10;95140.09;;;23.77;47.49
22389;BME280;11362;48.102;11.620;2023-05-23T07:24:36;95137.31;;;23.77;47.69
22389;BME280;11362;48.102;11.620;2023-05-23T07:27:01;95140.50;;;23.76;47.55
22389;BME280;11362;48.102;11.620;2023-05-23T07:29:26;95141.66;;;23.78;47.50
22389;BME280;11362;48.102;11.620;2023-05-23T07:31:51;95137.31;;;23.77;47.41
22389;BME280;11362;48.102;11.620;2023-05-23T07:34:17;95139.69;;;23.75;47.53
22389;BME280;11362;48.102;11.620;2023-05-23T07:36:42;95140.50;;;23.76;47.53
22389;BME280;11362;48.102;11.620;2023-05-23T07:39:07;95143.28;;;23.76;47.63
22389;BME280;11362;48.102;11.620;2023-05-23T07:41:33;95137.38;;;23.74;47.50
22389;BME280;11362;48.102;11.620;2023-05-23T07:43:58;95149.59;;;23.76;47.50
22389;BME280;11362;48.102;11.620;2023-05-23T07:46:23;95137.72;;;23.76;47.60
22389;BME280;11362;48.102;11.620;2023-05-23T07:48:48;95142.41;;;23.79;47.70
22389;BME280;11362;48.102;11.620;2023-05-23T07:51:14;95147.59;;;23.77;47.67
22389;BME280;11362;48.102;11.620;2023-05-23T07:53:39;95146.41;;;23.78;47.53
22389;BME280;11362;48.102;11.620;2023-05-23T07:56:05;95134.91;;;23.79;47.50
22389;BME280;11362;48.102;11.620;2023-05-23T07:58:30;95151.94;;;23.78;47.64
22389;BME280;11362;48.102;11.620;2023-05-23T08:00:56;95151.94;;;23.78;47.57
22389;BME280;11362;48.102;11.620;2023-05-23T08:03:21;95148.41;;;23.77;47.52
22389;BME280;11362;48.102;11.620;2023-05-23T08:05:46;95151.19;;;23.77;47.57
22389;BME280;11362;48.102;11.620;2023-05-23T08:08:12;95150.38;;;23.77;47.64
22389;BME280;11362;48.102;11.620;2023-05-23T08:10:37;95153.94;;;23.77;47.68
22389;BME280;11362;48.102;11.620;2023-05-23T08:13:02;95156.72;;;23.77;47.52
22389;BME280;11362;48.102;11.620;2023-05-23T08:15:27;95151.94;;;23.78;47.57
22389;BME280;11362;48.102;11.620;2023-05-23T08:17:53;95157.91;;;23.76;47.62
22389;BME280;11362;48.102;11.620;2023-05-23T08:20:18;95166.22;;;23.76;47.57
22389;BME280;11362;48.102;11.620;2023-05-23T08:22:43;95156.72;;;23.77;47.64
22389;BME280;11362;48.102;11.620;2023-05-23T08:25:08;95164.59;;;23.79;47.64
22389;BME280;11362;48.102;11.620;2023-05-23T08:27:34;95171.78;;;23.76;47.72
22389;BME280;11362;48.102;11.620;2023-05-23T08:29:59;95161.13;;;23.75;47.68
22389;BME280;11362;48.102;11.620;2023-05-23T08:32:24;95166.22;;;23.76;47.52
22389;BME280;11362;48.102;11.620;2023-05-23T08:34:49;95169.00;;;23.76;47.54
22389;BME280;11362;48.102;11.620;2023-05-23T08:37:15;95161.88;;;23.75;47.81
22389;BME280;11362;48.102;11.620;2023-05-23T08:39:40;95175.75;;;23.75;47.50
22389;BME280;11362;48.102;11.620;2023-05-23T08:42:06;95166.66;;;23.75;47.65
22389;BME280;11362;48.102;11.620;2023-05-23T08:44:31;95176.97;;;23.74;47.75
22389;BME280;11362;48.102;11.620;2023-05-23T08:47:00;95179.75;;;23.74;47.81
22389;BME280;11362;48.102;11.620;2023-05-23T08:49:27;95181.31;;;23.75;47.63
22389;BME280;11362;48.102;11.620;2023-05-23T08:51:55;95182.88;;;23.76;47.82
22389;BME280;11362;48.102;11.620;2023-05-23T08:54:24;95182.09;;;23.76;47.73
22389;BME280;11362;48.102;11.620;2023-05-23T08:56:49;95184.47;;;23.77;47.62
22389;BME280;11362;48.102;11.620;2023-05-23T08:59:15;95178.91;;;23.77;47.68
22389;BME280;11362;48.102;11.620;2023-05-23T09:01:40;95182.47;;;23.78;47.70
22389;BME280;11362;48.102;11.620;2023-05-23T09:04:07;95180.47;;;23.78;47.61
22389;BME280;11362;48.102;11.620;2023-05-23T09:06:33;95186.38;;;23.80;47.93
22389;BME280;11362;48.102;11.620;2023-05-23T09:08:59;95171.31;;;23.81;48.02
22389;BME280;11362;48.102;11.620;2023-05-23T09:11:24;95183.97;;;23.82;47.96
22389;BME280;11362;48.102;11.620;2023-05-23T09:13:49;95188.75;;;23.82;48.42
22389;BME280;11362;48.102;11.620;2023-05-23T09:16:15;95186.75;;;23.82;48.01
22389;BME280;11362;48.102;11.620;2023-05-23T09:18:42;95194.66;;;23.84;48.01
22389;BME280;11362;48.102;11.620;2023-05-23T09:21:09;95184.34;;;23.84;47.80
22389;BME280;11362;48.102;11.620;2023-05-23T09:23:36;95192.28;;;23.82;47.72
22389;BME280;11362;48.102;11.620;2023-05-23T09:26:05;95204.25;;;23.79;47.65
22389;BME280;11362;48.102;11.620;2023-05-23T09:28:32;95197.88;;;23.79;47.68
22389;BME280;11362;48.102;11.620;2023-05-23T09:31:01;95188.75;;;23.82;48.47
22389;BME280;11362;48.102;11.620;2023-05-23T09:33:44;95194.25;;;23.85;48.65
22389;BME280;11362;48.102;11.620;2023-05-23T09:36:09;95192.25;;;23.86;48.34
22389;BME280;11362;48.102;11.620;2023-05-23T09:38:43;95190.63;;;23.88;48.56
22389;BME280;11362;48.102;11.620;2023-05-23T09:41:09;95188.22;;;23.90;48.43
22389;BME280;11362;48.102;11.620;2023-05-23T09:43:36;95190.59;;;23.92;48.47
22389;BME280;11362;48.102;11.620;2023-05-23T09:46:08;95189.03;;;23.91;48.56
22389;BME280;11362;48.102;11.620;2023-05-23T09:48:34;95189.06;;;23.87;48.43
22389;BME280;11362;48.102;11.620;2023-05-23T09:51:03;95198.59;;;23.86;48.43
22389;BME280;11362;48.102;11.620;2023-05-23T09:53:28;95191.47;;;23.85;48.50
22389;BME280;11362;48.102;11.620;2023-05-23T09:55:54;95199.78;;;23.85;48.43
22389;BME280;11362;48.102;11.620;2023-05-23T09:58:22;95192.28;;;23.82;48.49
22389;BME280;11362;48.102;11.620;2023-05-23T10:00:49;95191.53;;;23.82;48.42
22389;BME280;11362;48.102;11.620;2023-05-23T10:03:15;95192.28;;;23.82;48.49
22389;BME280;11362;48.102;11.620;2023-05-23T10:05:49;95190.31;;;23.83;48.33
22389;BME280;11362;48.102;11.620;2023-05-23T10:08:23;95196.63;;;23.83;48.21
22389;BME280;11362;48.102;11.620;2023-05-23T10:13:21;95187.13;;;23.84;48.24
22389;BME280;11362;48.102;11.620;2023-05-23T10:15:50;95177.59;;;23.85;48.15
22389;BME280;11362;48.102;11.620;2023-05-23T10:18:22;95164.56;;;23.82;48.04
22389;BME280;11362;48.102;11.620;2023-05-23T10:20:52;95172.47;;;23.84;47.92
22389;BME280;11362;48.102;11.620;2023-05-23T10:23:21;95185.91;;;23.85;48.10
22389;BME280;11362;48.102;11.620;2023-05-23T10:25:47;95174.81;;;23.85;47.77
22389;BME280;11362;48.102;11.620;2023-05-23T10:28:13;95185.53;;;23.83;47.92
22389;BME280;11362;48.102;11.620;2023-05-23T10:30:39;95174.44;;;23.83;48.05
22389;BME280;11362;48.102;11.620;2023-05-23T10:33:05;95177.66;;;23.82;48.15
22389;BME280;11362;48.102;11.620;2023-05-23T10:40:51;95175.28;;;23.80;47.81
22389;BME280;11362;48.102;11.620;2023-05-23T10:43:24;95182.41;;;23.81;48.17
22389;BME280;11362;48.102;11.620;2023-05-23T10:45:51;95176.84;;;23.81;48.21
22389;BME280;11362;48.102;11.620;2023-05-23T10:48:32;95185.19;;;23.81;48.13
22389;BME280;11362;48.102;11.620;2023-05-23T10:51:07;95183.19;;;23.82;47.82
22389;BME280;11362;48.102;11.620;2023-05-23T10:53:35;95187.91;;;23.85;48.19
22389;BME280;11362;48.102;11.620;2023-05-23T10:56:01;95185.19;;;23.81;48.15
22389;BME280;11362;48.102;11.620;2023-05-23T10:58:29;95186.75;;;23.82;47.79
22389;BME280;11362;48.102;11.620;2023-05-23T11:01:09;95192.28;;;23.82;48.08
22389;BME280;11362;48.102;11.620;2023-05-23T11:09:26;95171.22;;;23.88;47.92
22389;BME280;11362;48.102;11.620;2023-05-23T11:12:04;95174.34;;;23.90;47.96
22389;BME280;11362;48.102;11.620;2023-05-23T11:16:55;95155.66;;;23.94;47.78
22389;BME280;11362;48.102;11.620;2023-05-23T11:19:21;95152.09;;;23.94;47.92
22389;BME280;11362;48.102;11.620;2023-05-23T11:21:56;95145.34;;;23.95;47.73
22389;BME280;11362;48.102;11.620;2023-05-23T11:24:22;95151.69;;;23.95;47.90
22389;BME280;11362;48.102;11.620;2023-05-23T11:26:56;95141.81;;;23.94;47.96
22389;BME280;11362;48.102;11.620;2023-05-23T11:29:22;95135.03;;;23.95;48.22
22389;BME280;11362;48.102;11.620;2023-05-23T11:31:47;95128.28;;;23.96;48.33
22389;BME280;11362;48.102;11.620;2023-05-23T11:34:12;95143.72;;;23.97;48.19
22389;BME280;11362;48.102;11.620;2023-05-23T11:36:38;95142.50;;;23.98;48.24
22389;BME280;11362;48.102;11.620;2023-05-23T11:39:04;95143.72;;;23.97;48.13
22389;BME280;11362;48.102;11.620;2023-05-23T11:41:29;95143.72;;;23.97;48.29
22389;BME280;11362;48.102;11.620;2023-05-23T11:43:55;95148.91;;;23.95;48.15
22389;BME280;11362;48.102;11.620;2023-05-23T11:46:20;95144.94;;;23.96;47.89
22389;BME280;11362;48.102;11.620;2023-05-23T11:48:46;95129.84;;;23.97;48.08
22389;BME280;11362;48.102;11.620;2023-05-23T11:51:12;95138.16;;;23.97;48.07
22389;BME280;11362;48.102;11.620;2023-05-23T11:53:37;95121.53;;;23.97;47.92
22389;BME280;11362;48.102;11.620;2023-05-23T11:56:03;95117.53;;;23.98;47.93
22389;BME280;11362;48.102;11.620;2023-05-23T11:58:30;95121.47;;;24.01;47.82
22389;BME280;11362;48.102;11.620;2023-05-23T12:00:59;95121.91;;;23.99;47.64
22389;BME280;11362;48.102;11.620;2023-05-23T12:03:24;95125.44;;;24.00;47.84
22389;BME280;11362;48.102;11.620;2023-05-23T12:05:50;95124.69;;;23.99;47.63
22389;BME280;11362;48.102;11.620;2023-05-23T12:08:15;95129.38;;;24.02;47.72
22389;BME280;11362;48.102;11.620;2023-05-23T12:10:55;95131.28;;;24.05;47.98
22389;BME280;11362;48.102;11.620;2023-05-23T12:13:27;95125.72;;;24.05;48.24
22389;BME280;11362;48.102;11.620;2023-05-23T12:15:56;95116.59;;;24.08;48.26
22389;BME280;11362;48.102;11.620;2023-05-23T12:18:24;95103.47;;;24.09;48.37
22389;BME280;11362;48.102;11.620;2023-05-23T12:20:51;95099.13;;;24.08;48.53
22389;BME280;11362;48.102;11.620;2023-05-23T12:23:20;95105.53;;;24.05;48.51
22389;BME280;11362;48.102;11.620;2023-05-23T12:25:51;95126.94;;;24.04;48.50
22389;BME280;11362;48.102;11.620;2023-05-23T12:28:16;95130.09;;;24.06;48.40
22389;BME280;11362;48.102;11.620;2023-05-23T12:30:42;95123.69;;;24.09;48.72
22389;BME280;11362;48.102;11.620;2023-05-23T12:33:08;95126.13;;;24.07;48.37
22389;BME280;11362;48.102;11.620;2023-05-23T12:35:33;95121.34;;;24.08;48.30
22389;BME280;11362;48.102;11.620;2023-05-23T12:37:59;95131.28;;;24.05;48.32
22389;BME280;11362;48.102;11.620;2023-05-23T12:40:24;95119.00;;;24.06;48.39
22389;BME280;11362;48.102;11.620;2023-05-23T12:42:51;95125.72;;;24.05;48.08
22389;BME280;11362;48.102;11.620;2023-05-23T12:45:38;95128.16;;;24.03;48.08
22389;BME280;11362;48.102;11.620;2023-05-23T12:48:03;95125.38;;;24.03;48.14
22389;BME280;11362;48.102;11.620;2023-05-23T12:50:29;95113.50;;;24.03;48.18
22389;BME280;11362;48.102;11.620;2023-05-23T12:52:54;95129.31;;;24.06;48.23
22389;BME280;11362;48.102;11.620;2023-05-23T12:55:19;95103.59;;;24.02;48.25
22389;BME280;11362;48.102;11.620;2023-05-23T12:57:45;95116.72;;;24.01;48.13
22389;BME280;11362;48.102;11.620;2023-05-23T13:00:10;95115.13;;;24.00;48.25
22389;BME280;11362;48.102;11.620;2023-05-23T13:02:36;95113.06;;;24.04;48.28
22389;BME280;11362;48.102;11.620;2023-05-23T13:05:02;95115.09;;;24.04;48.13
22389;BME280;11362;48.102;11.620;2023-05-23T13:07:27;95124.56;;;24.06;48.22